createdAt,value
2018-07-14T00:01:42.379Z,5.17
2018-07-14T00:04:11.230Z,5.10
2018-07-14T00:06:39.698Z,6.00
2018-07-14T00:09:08.235Z,5.47
2018-07-14T00:11:36.671Z,7.07
2018-07-14T00:14:05.124Z,5.37
2018-07-14T00:16:33.288Z,4.97
2018-07-14T00:19:01.728Z,6.37
2018-07-14T00:21:30.227Z,5.73
2018-07-14T00:23:58.713Z,5.40
2018-07-14T00:26:27.215Z,4.90
2018-07-14T00:28:55.680Z,7.00
2018-07-14T00:31:24.235Z,8.20
2018-07-14T00:33:52.693Z,4.83
2018-07-14T00:36:21.155Z,5.23
2018-07-14T00:38:49.671Z,6.33
2018-07-14T00:41:18.106Z,5.23
2018-07-14T00:43:46.916Z,4.90
2018-07-14T00:46:15.404Z,4.47
2018-07-14T00:48:45.003Z,5.17
2018-07-14T00:51:13.878Z,5.40
2018-07-14T00:53:42.334Z,7.23
2018-07-14T00:56:10.814Z,5.77
2018-07-14T00:58:39.610Z,5.73
2018-07-14T01:01:08.095Z,5.40
2018-07-14T01:03:36.630Z,7.77
2018-07-14T01:06:05.127Z,5.80
2018-07-14T01:08:33.560Z,5.37
2018-07-14T01:11:02.053Z,6.20
2018-07-14T01:13:30.852Z,6.00
2018-07-14T01:15:59.367Z,4.80
2018-07-14T01:18:27.824Z,4.97
2018-07-14T01:20:56.314Z,6.57
2018-07-14T01:23:24.792Z,5.40
2018-07-14T01:25:53.297Z,5.17
2018-07-14T01:28:22.091Z,6.00
2018-07-14T01:30:50.589Z,5.10
2018-07-14T01:33:19.012Z,5.57
2018-07-14T01:35:47.511Z,4.80
2018-07-14T01:38:15.974Z,5.40
2018-07-14T01:40:44.548Z,5.27
2018-07-14T01:43:13.111Z,5.17
2018-07-14T01:45:41.603Z,5.53
2018-07-14T01:48:10.080Z,5.93
2018-07-14T01:50:38.554Z,5.17
2018-07-14T01:53:07.204Z,5.27
2018-07-14T01:55:35.696Z,5.43
2018-07-14T01:58:04.331Z,5.87
2018-07-14T02:00:32.811Z,6.03
2018-07-14T02:03:01.256Z,6.47
2018-07-14T02:05:29.719Z,5.30
2018-07-14T02:07:58.173Z,5.30
2018-07-14T02:10:26.684Z,5.53
2018-07-14T02:12:55.151Z,5.80
2018-07-14T02:15:23.645Z,6.00
2018-07-14T02:17:52.478Z,6.37
2018-07-14T02:20:20.912Z,6.57
2018-07-14T02:22:49.415Z,5.70
2018-07-14T02:25:17.892Z,5.77
2018-07-14T02:27:46.871Z,5.73
2018-07-14T02:30:15.308Z,7.47
2018-07-14T02:32:43.796Z,5.20
2018-07-14T02:35:12.240Z,6.20
2018-07-14T02:37:40.863Z,8.43
2018-07-14T02:40:09.303Z,5.37
2018-07-14T02:42:37.768Z,5.53
2018-07-14T02:45:07.044Z,6.00
2018-07-14T02:47:35.506Z,6.07
2018-07-14T02:50:04.152Z,6.13
2018-07-14T02:52:32.589Z,6.70
2018-07-14T02:55:01.119Z,5.80
2018-07-14T02:57:29.664Z,7.90
2018-07-14T02:59:58.131Z,5.43
2018-07-14T03:02:26.577Z,7.10
2018-07-14T03:04:55.062Z,5.93
2018-07-14T03:07:23.508Z,5.97
2018-07-14T03:09:52.034Z,5.43
2018-07-14T03:12:20.517Z,6.13
2018-07-14T03:14:49.010Z,6.63
2018-07-14T03:17:17.466Z,5.70
2018-07-14T03:19:45.963Z,5.87
2018-07-14T03:22:14.431Z,5.43
2018-07-14T03:24:42.937Z,5.50
2018-07-14T03:27:11.473Z,5.80
2018-07-14T03:29:39.649Z,5.30
2018-07-14T03:32:08.168Z,5.67
2018-07-14T03:34:36.831Z,6.57
2018-07-14T03:37:05.284Z,6.27
2018-07-14T03:39:33.759Z,7.07
2018-07-14T03:42:03.181Z,6.03
2018-07-14T03:44:31.863Z,5.90
2018-07-14T03:46:59.994Z,5.60
2018-07-14T03:49:28.456Z,5.97
2018-07-14T03:51:56.931Z,7.53
2018-07-14T03:54:25.393Z,6.77
2018-07-14T03:56:53.871Z,6.33
2018-07-14T03:59:22.507Z,6.80
2018-07-14T04:01:50.996Z,6.83
2018-07-14T04:04:19.425Z,10.70
2018-07-14T04:06:47.902Z,8.10
2018-07-14T04:09:16.391Z,5.80
2018-07-14T04:11:44.874Z,6.63
2018-07-14T04:14:13.360Z,7.23
2018-07-14T04:16:41.811Z,6.97
2018-07-14T04:19:10.284Z,6.70
2018-07-14T04:21:38.721Z,7.27
2018-07-14T04:24:07.284Z,6.93
2018-07-14T04:26:35.740Z,8.00
2018-07-14T04:29:04.257Z,6.43
2018-07-14T04:31:32.764Z,5.93
2018-07-14T04:34:01.251Z,7.87
2018-07-14T04:36:29.871Z,7.50
2018-07-14T04:38:58.357Z,6.80
2018-07-14T04:41:26.813Z,9.30
2018-07-14T04:43:55.623Z,6.50
2018-07-14T04:46:24.078Z,7.73
2018-07-14T04:48:52.523Z,8.53
2018-07-14T04:51:21.008Z,7.43
2018-07-14T04:53:49.446Z,6.97
2018-07-14T04:56:18.280Z,10.13
2018-07-14T04:58:46.759Z,7.40
2018-07-14T05:01:15.584Z,7.40
2018-07-14T05:03:44.067Z,6.90
2018-07-14T05:06:12.867Z,6.67
2018-07-14T05:08:41.336Z,9.37
2018-07-14T05:11:09.762Z,8.13
2018-07-14T05:13:38.235Z,7.50
2018-07-14T05:16:06.714Z,10.97
2018-07-14T05:18:35.193Z,9.00
2018-07-14T05:21:03.645Z,8.17
2018-07-14T05:23:32.178Z,8.03
2018-07-14T05:26:02.699Z,10.77
2018-07-14T05:28:31.179Z,6.60
2018-07-14T05:30:59.872Z,8.67
2018-07-14T05:33:28.311Z,11.10
2018-07-14T05:35:56.786Z,8.97
2018-07-14T05:38:25.241Z,8.90
2018-07-14T05:40:53.718Z,8.97
2018-07-14T05:43:22.173Z,8.60
2018-07-14T05:45:50.695Z,7.63
2018-07-14T05:48:19.139Z,8.27
2018-07-14T05:50:47.635Z,7.50
2018-07-14T05:53:16.058Z,8.43
2018-07-14T05:55:44.560Z,8.60
2018-07-14T05:58:13.003Z,8.93
2018-07-14T06:00:41.470Z,8.10
2018-07-14T06:03:09.931Z,8.37
2018-07-14T06:05:38.412Z,7.20
2018-07-14T06:08:06.855Z,9.63
2018-07-14T06:10:35.344Z,15.13
2018-07-14T06:13:03.755Z,8.87
2018-07-14T06:15:32.256Z,8.30
2018-07-14T06:18:00.701Z,6.93
2018-07-14T06:20:29.533Z,10.57
2018-07-14T06:22:57.994Z,12.37
2018-07-14T06:25:26.603Z,8.53
2018-07-14T06:27:55.061Z,10.53
2018-07-14T06:30:23.900Z,9.47
2018-07-14T06:32:52.387Z,8.83
2018-07-14T06:35:20.831Z,9.23
2018-07-14T06:37:49.653Z,7.60
2018-07-14T06:40:18.130Z,7.80
2018-07-14T06:42:46.764Z,7.93
2018-07-14T06:45:15.232Z,8.67
2018-07-14T06:47:43.703Z,8.93
2018-07-14T06:50:12.156Z,10.00
2018-07-14T06:52:40.639Z,7.83
2018-07-14T06:55:09.076Z,9.77
2018-07-14T06:57:37.614Z,8.17
2018-07-14T07:00:06.401Z,11.37
2018-07-14T07:02:34.864Z,7.77
2018-07-14T07:05:03.330Z,11.43
2018-07-14T07:07:31.823Z,8.13
2018-07-14T07:10:00.616Z,9.47
2018-07-14T07:12:29.136Z,7.70
2018-07-14T07:14:57.913Z,9.40
2018-07-14T07:17:26.407Z,12.67
2018-07-14T07:19:54.840Z,6.97
2018-07-14T07:22:23.428Z,8.20
2018-07-14T07:24:51.868Z,7.37
2018-07-14T07:27:20.341Z,9.33
2018-07-14T07:29:48.771Z,8.17
2018-07-14T07:32:17.578Z,8.50
2018-07-14T07:34:46.464Z,8.83
2018-07-14T07:37:15.422Z,9.37
2018-07-14T07:39:43.906Z,8.43
2018-07-14T07:42:12.732Z,8.87
2018-07-14T07:44:41.356Z,7.60
2018-07-14T07:47:09.841Z,7.40
2018-07-14T07:49:38.284Z,10.20
2018-07-14T07:52:07.095Z,6.60
2018-07-14T07:54:35.563Z,7.80
2018-07-14T07:57:04.066Z,8.83
2018-07-14T07:59:33.060Z,9.90
2018-07-14T08:02:01.512Z,8.40
2018-07-14T08:04:30.540Z,8.30
2018-07-14T08:06:59.528Z,8.48
2018-07-14T08:09:28.555Z,7.83
2018-07-14T08:11:57.615Z,7.25
2018-07-14T08:14:26.600Z,7.60
2018-07-14T08:16:55.640Z,7.03
2018-07-14T08:19:24.658Z,9.73
2018-07-14T08:21:53.840Z,7.47
2018-07-14T08:24:22.904Z,6.50
2018-07-14T08:26:51.913Z,6.60
2018-07-14T08:29:22.680Z,6.75
2018-07-14T08:31:51.696Z,7.08
2018-07-14T08:34:20.751Z,7.28
2018-07-14T08:36:49.735Z,6.95
2018-07-14T08:39:18.764Z,5.58
2018-07-14T08:41:47.787Z,5.58
2018-07-14T08:44:16.840Z,5.47
2018-07-14T08:46:45.806Z,5.20
2018-07-14T08:49:14.815Z,5.20
2018-07-14T08:51:43.826Z,5.22
2018-07-14T08:54:12.836Z,4.10
2018-07-14T08:56:42.182Z,9.70
2018-07-14T08:59:11.235Z,5.03
2018-07-14T09:01:40.236Z,8.03
2018-07-14T09:04:09.242Z,5.60
2018-07-14T09:06:38.219Z,8.35
2018-07-14T09:09:07.435Z,8.00
2018-07-14T09:11:36.518Z,5.53
2018-07-14T09:14:05.676Z,6.85
2018-07-14T09:16:34.786Z,4.87
2018-07-14T09:19:04.249Z,6.25
2018-07-14T09:21:33.266Z,6.92
2018-07-14T09:24:02.318Z,6.22
2018-07-14T09:26:31.315Z,6.30
2018-07-14T09:29:00.329Z,8.95
2018-07-14T09:31:29.344Z,5.25
2018-07-14T09:33:58.740Z,7.03
2018-07-14T09:36:28.143Z,5.37
2018-07-14T09:38:57.179Z,5.70
2018-07-14T09:41:25.854Z,8.20
2018-07-14T09:43:54.679Z,6.80
2018-07-14T09:46:23.860Z,4.78
2018-07-14T09:48:52.978Z,4.35
2018-07-14T09:51:22.018Z,6.35
2018-07-14T09:53:51.047Z,9.45
2018-07-14T09:56:20.079Z,6.33
2018-07-14T09:58:49.395Z,6.10
2018-07-14T10:01:18.380Z,6.92
2018-07-14T10:03:47.406Z,10.40
2018-07-14T10:06:16.427Z,5.08
2018-07-14T10:08:45.596Z,4.40
2018-07-14T10:11:14.579Z,5.45
2018-07-14T10:13:43.703Z,5.08
2018-07-14T10:16:13.019Z,5.20
2018-07-14T10:18:42.361Z,4.97
2018-07-14T10:21:11.471Z,4.40
2018-07-14T10:23:40.452Z,5.17
2018-07-14T10:26:09.651Z,3.95
2018-07-14T10:28:38.759Z,3.98
2018-07-14T10:31:07.796Z,3.90
2018-07-14T10:33:42.291Z,3.22
2018-07-14T10:36:11.474Z,4.12
2018-07-14T10:38:40.551Z,4.35
2018-07-14T10:41:10.098Z,3.17
2018-07-14T10:43:39.427Z,3.87
2018-07-14T10:46:08.852Z,3.50
2018-07-14T10:48:37.827Z,4.28
2018-07-14T10:51:06.847Z,3.17
2018-07-14T10:53:35.818Z,3.62
2018-07-14T10:56:04.884Z,3.50
2018-07-14T10:58:33.903Z,4.58
2018-07-14T11:01:03.024Z,4.17
2018-07-14T11:03:32.037Z,4.92
2018-07-14T11:06:01.059Z,3.55
2018-07-14T11:08:30.056Z,5.10
2018-07-14T11:10:59.074Z,3.45
2018-07-14T11:13:28.065Z,3.37
2018-07-14T11:15:57.099Z,3.30
2018-07-14T11:18:26.074Z,3.30
2018-07-14T11:20:55.129Z,3.12
2018-07-14T11:23:24.099Z,3.12
2018-07-14T11:25:53.096Z,3.40
2018-07-14T11:28:22.069Z,4.50
2018-07-14T11:30:51.088Z,3.05
2018-07-14T11:33:20.092Z,3.95
2018-07-14T11:35:49.104Z,3.17
2018-07-14T11:38:18.091Z,3.85
2018-07-14T11:40:47.134Z,5.12
2018-07-14T11:43:16.123Z,5.80
2018-07-14T11:45:45.156Z,4.03
2018-07-14T11:48:14.128Z,4.62
2018-07-14T11:50:43.140Z,3.77
2018-07-14T11:53:12.134Z,4.72
2018-07-14T11:56:01.495Z,4.10
2018-07-14T11:58:32.025Z,4.53
2018-07-14T12:01:06.208Z,4.60
2018-07-14T12:03:37.175Z,11.28
2018-07-14T12:06:10.149Z,4.15
2018-07-14T12:08:39.153Z,3.55
2018-07-14T12:11:11.057Z,3.80
2018-07-14T12:13:40.423Z,3.58
2018-07-14T12:16:09.516Z,3.45
2018-07-14T12:18:38.748Z,4.45
2018-07-14T12:21:07.847Z,4.05
2018-07-14T12:23:36.839Z,3.75
2018-07-14T12:26:05.939Z,5.97
2018-07-14T12:28:35.228Z,7.12
2018-07-14T12:31:04.579Z,4.00
2018-07-14T12:33:33.591Z,10.90
2018-07-14T12:36:02.674Z,4.72
2018-07-14T12:38:31.672Z,28.17
2018-07-14T12:41:00.701Z,4.92
2018-07-14T12:43:29.766Z,6.90
2018-07-14T12:45:58.924Z,3.85
2018-07-14T12:48:28.637Z,3.30
2018-07-14T12:50:57.774Z,30.85
2018-07-14T12:53:26.771Z,4.15
2018-07-14T12:55:55.842Z,4.92
2018-07-14T12:58:24.815Z,3.52
2018-07-14T13:00:53.848Z,3.90
2018-07-14T13:03:22.840Z,3.90
2018-07-14T13:05:52.183Z,3.33
2018-07-14T13:08:21.544Z,3.75
2018-07-14T13:10:50.919Z,3.20
2018-07-14T13:13:20.230Z,4.78
2018-07-14T13:15:49.255Z,5.33
2018-07-14T13:18:18.258Z,3.22
2018-07-14T13:20:47.366Z,11.50
2018-07-14T13:23:16.393Z,5.22
2018-07-14T13:25:45.534Z,3.72
2018-07-14T13:28:14.526Z,4.55
2018-07-14T13:30:43.522Z,5.45
2018-07-14T13:33:12.556Z,3.42
2018-07-14T13:35:41.581Z,3.90
2018-07-14T13:38:10.577Z,3.77
2018-07-14T13:40:39.632Z,4.58
2018-07-14T13:43:08.619Z,4.10
2018-07-14T13:45:37.839Z,3.40
2018-07-14T13:48:06.894Z,3.30
2018-07-14T13:50:36.229Z,3.15
2018-07-14T13:53:05.267Z,3.40
2018-07-14T13:55:34.283Z,3.20
2018-07-14T13:58:03.299Z,2.98
2018-07-14T14:00:32.612Z,3.95
2018-07-14T14:03:01.648Z,3.80
2018-07-14T14:05:30.685Z,3.10
2018-07-14T14:07:59.719Z,3.90
2018-07-14T14:10:28.706Z,3.25
2018-07-14T14:12:57.726Z,3.40
2018-07-14T14:15:26.410Z,2.95
2018-07-14T14:17:55.757Z,3.00
2018-07-14T14:20:24.760Z,3.55
2018-07-14T14:22:53.807Z,4.87
2018-07-14T14:25:22.803Z,3.05
2018-07-14T14:27:51.833Z,3.50
2018-07-14T14:30:20.799Z,2.98
2018-07-14T14:32:49.808Z,2.62
2018-07-14T14:35:18.780Z,2.80
2018-07-14T14:37:47.776Z,3.10
2018-07-14T14:40:17.104Z,3.10
2018-07-14T14:42:46.115Z,3.33
2018-07-14T14:45:15.130Z,5.12
2018-07-14T14:47:43.852Z,3.62
2018-07-14T14:50:12.850Z,5.03
2018-07-14T14:52:41.883Z,5.50
2018-07-14T14:55:10.862Z,4.20
2018-07-14T14:57:39.893Z,3.02
2018-07-14T15:00:08.932Z,4.00
2018-07-14T15:02:37.945Z,5.55
2018-07-14T15:05:07.305Z,4.22
2018-07-14T15:07:36.342Z,6.22
2018-07-14T15:10:05.412Z,11.45
2018-07-14T15:12:34.454Z,3.27
2018-07-14T15:15:03.827Z,2.77
2018-07-14T15:17:32.859Z,3.55
2018-07-14T15:20:01.867Z,4.20
2018-07-14T15:22:31.006Z,4.45
2018-07-14T15:25:00.342Z,5.53
2018-07-14T15:27:29.371Z,3.47
2018-07-14T15:29:58.350Z,3.77
2018-07-14T15:32:28.088Z,3.08
2018-07-14T15:34:57.248Z,3.58
2018-07-14T15:37:26.255Z,4.65
2018-07-14T15:39:55.244Z,4.67
2018-07-14T15:42:24.267Z,3.50
2018-07-14T15:44:53.255Z,4.75
2018-07-14T15:47:22.259Z,3.75
2018-07-14T15:49:51.246Z,4.92
2018-07-14T15:52:20.270Z,5.47
2018-07-14T15:54:49.241Z,4.03
2018-07-14T15:57:18.268Z,4.60
2018-07-14T15:59:47.236Z,3.92
2018-07-14T16:02:16.272Z,4.30
2018-07-14T16:04:46.568Z,3.60
2018-07-14T16:07:15.604Z,4.55
2018-07-14T16:09:44.595Z,3.77
2018-07-14T16:12:13.632Z,3.27
2018-07-14T16:14:42.600Z,2.92
2018-07-14T16:17:11.571Z,5.10
2018-07-14T16:19:40.609Z,2.70
2018-07-14T16:22:09.671Z,5.12
2018-07-14T16:24:38.693Z,5.53
2018-07-14T16:27:07.733Z,6.25
2018-07-14T16:29:36.742Z,4.60
2018-07-14T16:32:05.870Z,6.08
2018-07-14T16:34:37.320Z,5.42
2018-07-14T16:37:06.381Z,7.55
2018-07-14T16:39:35.752Z,5.95
2018-07-14T16:42:04.723Z,3.22
2018-07-14T16:44:33.804Z,4.87
2018-07-14T16:47:02.845Z,6.65
2018-07-14T16:49:31.863Z,3.70
2018-07-14T16:52:00.872Z,3.40
2018-07-14T16:54:29.895Z,3.10
2018-07-14T16:56:58.888Z,6.17
2018-07-14T16:59:27.904Z,3.75
2018-07-14T17:01:56.874Z,4.25
2018-07-14T17:04:26.119Z,3.83
2018-07-14T17:06:55.265Z,3.60
2018-07-14T17:09:24.285Z,3.45
2018-07-14T17:11:53.340Z,3.83
2018-07-14T17:14:22.364Z,3.67
2018-07-14T17:16:51.371Z,3.72
2018-07-14T17:19:20.399Z,3.40
2018-07-14T17:21:49.402Z,3.85
2018-07-14T17:24:18.773Z,3.52
2018-07-14T17:26:47.760Z,5.60
2018-07-14T17:29:16.972Z,3.60
2018-07-14T17:31:46.334Z,3.60
2018-07-14T17:34:15.332Z,10.05
2018-07-14T17:36:44.347Z,3.50
2018-07-14T17:39:13.383Z,4.78
2018-07-14T17:41:42.660Z,5.30
2018-07-14T17:44:11.711Z,3.50
2018-07-14T17:46:40.780Z,3.47
2018-07-14T17:49:09.768Z,7.20
2018-07-14T17:51:38.910Z,3.85
2018-07-14T17:54:08.468Z,5.37
2018-07-14T17:56:37.687Z,4.28
2018-07-14T17:59:07.314Z,5.15
2018-07-14T18:01:36.491Z,4.20
2018-07-14T18:04:05.484Z,3.85
2018-07-14T18:06:34.675Z,3.67
2018-07-14T18:09:03.928Z,4.22
2018-07-14T18:11:32.959Z,3.92
2018-07-14T18:14:01.952Z,4.78
2018-07-14T18:16:31.061Z,5.10
2018-07-14T18:19:00.185Z,8.13
2018-07-14T18:21:29.235Z,4.17
2018-07-14T18:23:58.260Z,3.72
2018-07-14T18:26:27.283Z,4.92
2018-07-14T18:28:56.254Z,4.58
2018-07-14T18:31:25.658Z,3.85
2018-07-14T18:33:54.656Z,6.20
2018-07-14T18:36:24.208Z,5.45
2018-07-14T18:38:53.257Z,4.75
2018-07-14T18:41:22.296Z,4.90
2018-07-14T18:43:51.385Z,5.20
2018-07-14T18:46:20.555Z,8.40
2018-07-14T18:48:49.572Z,7.92
2018-07-14T18:51:18.616Z,8.13
2018-07-14T18:53:47.611Z,8.95
2018-07-14T18:56:16.769Z,6.47
2018-07-14T18:58:45.804Z,7.37
2018-07-14T19:01:14.793Z,6.15
2018-07-14T19:03:43.825Z,10.08
2018-07-14T19:06:13.013Z,6.33
2018-07-14T19:08:42.427Z,7.67
2018-07-14T19:11:11.167Z,6.15
2018-07-14T19:13:39.635Z,5.22
2018-07-14T19:16:08.059Z,5.20
2018-07-14T19:18:36.565Z,8.47
2018-07-14T19:21:05.168Z,7.40
2018-07-14T19:23:34.090Z,8.43
2018-07-14T19:26:02.865Z,9.00
2018-07-14T19:28:31.403Z,8.87
2018-07-14T19:30:59.832Z,10.43
2018-07-14T19:33:28.348Z,12.27
2018-07-14T19:35:56.824Z,10.37
2018-07-14T19:38:25.299Z,13.00
2018-07-14T19:40:53.753Z,14.30
2018-07-14T19:43:22.223Z,11.10
2018-07-14T19:45:50.884Z,9.77
2018-07-14T19:48:19.372Z,13.73
2018-07-14T19:50:47.907Z,10.03
2018-07-14T19:53:16.371Z,14.63
2018-07-14T19:55:44.866Z,11.07
2018-07-14T19:58:13.456Z,7.97
2018-07-14T20:00:41.943Z,5.80
2018-07-14T20:03:10.432Z,6.90
2018-07-14T20:05:38.950Z,8.03
2018-07-14T20:08:07.413Z,7.87
2018-07-14T20:10:35.982Z,6.83
2018-07-14T20:13:04.451Z,7.27
2018-07-14T20:15:32.913Z,6.40
2018-07-14T20:18:01.404Z,9.90
2018-07-14T20:20:29.842Z,6.87
2018-07-14T20:22:58.381Z,7.37
2018-07-14T20:25:26.832Z,6.33
2018-07-14T20:27:55.443Z,8.30
2018-07-14T20:30:23.873Z,8.13
2018-07-14T20:32:52.423Z,6.60
2018-07-14T20:35:21.211Z,8.13
2018-07-14T20:37:49.715Z,8.10
2018-07-14T20:40:18.206Z,12.40
2018-07-14T20:42:46.704Z,8.30
2018-07-14T20:45:15.158Z,9.23
2018-07-14T20:47:43.626Z,8.10
2018-07-14T20:50:12.069Z,8.60
2018-07-14T20:52:40.584Z,8.97
2018-07-14T20:55:09.052Z,17.97
2018-07-14T20:57:39.247Z,11.87
2018-07-14T21:00:07.732Z,9.93
2018-07-14T21:02:36.199Z,7.03
2018-07-14T21:05:04.827Z,7.57
2018-07-14T21:07:33.308Z,5.30
2018-07-14T21:10:01.730Z,5.60
2018-07-14T21:12:30.310Z,5.70
2018-07-14T21:14:58.832Z,5.97
2018-07-14T21:17:27.452Z,5.90
2018-07-14T21:19:55.924Z,5.70
2018-07-14T21:22:25.113Z,5.07
2018-07-14T21:24:53.538Z,9.87
2018-07-14T21:27:22.001Z,10.63
2018-07-14T21:29:50.445Z,11.30
2018-07-14T21:32:19.299Z,24.43
2018-07-14T21:34:47.741Z,15.20
2018-07-14T21:37:16.206Z,18.17
2018-07-14T21:39:44.692Z,13.53
2018-07-14T21:42:13.167Z,13.87
2018-07-14T21:44:41.603Z,33.33
2018-07-14T21:47:10.112Z,23.97
2018-07-14T21:49:38.548Z,22.73
2018-07-14T21:52:07.031Z,32.00
2018-07-14T21:54:35.568Z,17.53
2018-07-14T21:57:04.065Z,15.80
2018-07-14T21:59:32.555Z,16.37
2018-07-14T22:02:04.367Z,12.90
2018-07-14T22:04:33.089Z,18.73
2018-07-14T22:07:01.548Z,18.03
2018-07-14T22:09:30.424Z,10.20
2018-07-14T22:11:58.901Z,13.53
2018-07-14T22:14:27.563Z,12.07
2018-07-14T22:16:56.030Z,12.07
2018-07-14T22:19:24.508Z,9.10
2018-07-14T22:21:53.713Z,7.93
2018-07-14T22:24:22.535Z,6.83
2018-07-14T22:26:50.987Z,4.97
2018-07-14T22:29:19.477Z,4.90
2018-07-14T22:31:48.078Z,3.53
2018-07-14T22:34:16.563Z,4.70
2018-07-14T22:36:45.051Z,6.10
2018-07-14T22:39:13.687Z,5.17
2018-07-14T22:41:45.842Z,5.67
2018-07-14T22:44:14.425Z,5.23
2018-07-14T22:46:42.867Z,6.90
2018-07-14T22:49:11.296Z,7.83
2018-07-14T22:51:39.782Z,5.83
2018-07-14T22:54:08.671Z,6.00
2018-07-14T22:56:37.147Z,6.33
2018-07-14T22:59:05.955Z,6.30
2018-07-14T23:01:34.596Z,5.10
2018-07-14T23:04:03.416Z,7.60
2018-07-14T23:06:31.894Z,7.40
2018-07-14T23:09:00.363Z,5.97
2018-07-14T23:11:28.835Z,5.80
2018-07-14T23:13:57.335Z,5.23
2018-07-14T23:16:25.867Z,5.23
2018-07-14T23:18:54.443Z,4.83
2018-07-14T23:21:23.072Z,5.33
2018-07-14T23:23:51.539Z,6.20
2018-07-14T23:26:19.989Z,5.10
2018-07-14T23:28:48.816Z,5.00
2018-07-14T23:31:17.251Z,7.33
2018-07-14T23:33:45.708Z,5.53
2018-07-14T23:36:14.139Z,4.70
2018-07-14T23:38:42.614Z,5.10
2018-07-14T23:41:11.285Z,5.23
2018-07-14T23:43:39.752Z,5.50
2018-07-14T23:46:08.181Z,5.93
2018-07-14T23:48:36.664Z,5.73
2018-07-14T23:51:05.113Z,6.93
2018-07-14T23:53:33.587Z,5.57
2018-07-14T23:56:02.360Z,7.50
2018-07-14T23:58:30.825Z,4.80
